createdAt,value
2023-06-15T00:01:49.841Z,12.10
2023-06-15T00:03:58.215Z,12.00
2023-06-15T00:06:06.971Z,12.00
2023-06-15T00:08:15.411Z,12.00
2023-06-15T00:10:23.644Z,12.00
2023-06-15T00:12:31.880Z,12.00
2023-06-15T00:14:40.487Z,12.00
2023-06-15T00:16:53.799Z,11.90
2023-06-15T00:19:02.985Z,11.70
2023-06-15T00:21:14.662Z,11.70
2023-06-15T00:23:27.930Z,11.70
2023-06-15T00:25:36.895Z,11.70
2023-06-15T00:27:45.173Z,11.70
2023-06-15T00:29:53.512Z,11.70
2023-06-15T00:32:03.243Z,11.60
2023-06-15T00:34:11.951Z,11.60
2023-06-15T00:36:20.437Z,11.50
2023-06-15T00:38:28.868Z,11.40
2023-06-15T00:40:39.858Z,11.40
2023-06-15T00:42:48.402Z,11.40
2023-06-15T00:44:56.641Z,11.40
2023-06-15T00:47:06.987Z,11.30
2023-06-15T00:49:15.608Z,11.30
2023-06-15T00:51:24.173Z,11.30
2023-06-15T00:53:33.392Z,11.30
2023-06-15T00:55:44.051Z,11.30
2023-06-15T00:57:53.902Z,11.20
2023-06-15T01:00:04.557Z,11.20
2023-06-15T01:02:16.187Z,11.10
2023-06-15T01:04:26.832Z,11.10
2023-06-15T01:06:38.464Z,11.00
2023-06-15T01:08:48.493Z,11.10
2023-06-15T01:10:58.752Z,11.10
2023-06-15T01:13:11.626Z,11.10
2023-06-15T01:15:20.529Z,11.10
2023-06-15T01:17:32.164Z,11.00
2023-06-15T01:19:54.915Z,10.90
2023-06-15T01:22:15.983Z,10.90
2023-06-15T01:24:29.533Z,10.80
2023-06-15T01:26:42.989Z,10.80
2023-06-15T01:28:54.157Z,10.80
2023-06-15T01:31:03.925Z,10.80
2023-06-15T01:33:13.593Z,10.80
2023-06-15T01:35:22.037Z,10.80
2023-06-15T01:37:30.505Z,10.80
2023-06-15T01:39:40.297Z,10.80
2023-06-15T01:41:50.045Z,10.70
2023-06-15T01:44:00.190Z,10.70
2023-06-15T01:46:08.831Z,10.60
2023-06-15T01:48:17.408Z,10.60
2023-06-15T01:50:26.767Z,10.50
2023-06-15T01:52:35.139Z,10.50
2023-06-15T01:54:43.581Z,10.50
2023-06-15T01:56:53.250Z,10.50
2023-06-15T01:59:01.588Z,10.50
2023-06-15T02:01:09.833Z,10.50
2023-06-15T02:03:18.151Z,10.50
2023-06-15T02:05:26.460Z,10.50
2023-06-15T02:07:34.844Z,10.50
2023-06-15T02:09:43.082Z,10.50
2023-06-15T02:11:52.740Z,10.40
2023-06-15T02:14:02.220Z,10.50
2023-06-15T02:16:10.508Z,10.60
2023-06-15T02:18:19.267Z,10.60
2023-06-15T02:20:28.912Z,10.60
2023-06-15T02:22:37.392Z,10.50
2023-06-15T02:24:45.740Z,10.50
2023-06-15T02:26:55.390Z,10.50
2023-06-15T02:29:03.661Z,10.50
2023-06-15T02:31:11.970Z,10.50
2023-06-15T02:33:20.606Z,10.40
2023-06-15T02:35:29.114Z,10.30
2023-06-15T02:37:37.515Z,10.40
2023-06-15T02:39:45.739Z,10.50
2023-06-15T02:41:55.369Z,10.50
2023-06-15T02:44:04.439Z,10.60
2023-06-15T02:46:12.688Z,10.60
2023-06-15T02:48:21.384Z,10.50
2023-06-15T02:50:29.718Z,10.40
2023-06-15T02:52:38.205Z,10.50
2023-06-15T02:54:46.639Z,10.50
2023-06-15T02:56:56.702Z,10.50
2023-06-15T02:59:05.036Z,10.60
2023-06-15T03:01:14.028Z,10.60
2023-06-15T03:03:29.982Z,10.60
2023-06-15T03:05:38.238Z,10.60
2023-06-15T03:07:46.688Z,10.70
2023-06-15T03:09:55.604Z,10.70
2023-06-15T03:12:05.987Z,10.80
2023-06-15T03:14:14.956Z,10.80
2023-06-15T03:16:26.436Z,10.80
2023-06-15T03:18:35.650Z,10.80
2023-06-15T03:20:53.901Z,10.90
2023-06-15T03:23:02.596Z,11.00
2023-06-15T03:25:12.571Z,11.00
2023-06-15T03:27:23.743Z,11.10
2023-06-15T03:29:32.866Z,11.10
2023-06-15T03:31:42.418Z,11.20
2023-06-15T03:33:50.684Z,11.30
2023-06-15T03:36:02.710Z,11.40
2023-06-15T03:38:10.890Z,11.50
2023-06-15T03:40:19.823Z,11.50
2023-06-15T03:42:29.579Z,11.50
2023-06-15T03:44:37.917Z,11.60
2023-06-15T03:46:47.224Z,11.70
2023-06-15T03:48:55.472Z,11.80
2023-06-15T03:51:03.748Z,11.80
2023-06-15T03:53:14.550Z,11.90
2023-06-15T03:55:23.117Z,11.90
2023-06-15T03:57:32.897Z,12.00
2023-06-15T03:59:41.130Z,12.10
2023-06-15T04:01:49.364Z,12.20
2023-06-15T04:03:58.012Z,12.30
2023-06-15T04:06:06.533Z,12.40
2023-06-15T04:08:15.446Z,12.50
2023-06-15T04:10:23.599Z,12.50
2023-06-15T04:12:33.175Z,12.60
2023-06-15T04:14:43.127Z,12.70
2023-06-15T04:19:01.695Z,12.90
2023-06-15T04:21:10.092Z,13.00
2023-06-15T04:23:19.010Z,13.10
2023-06-15T04:25:29.967Z,13.20
2023-06-15T04:27:41.138Z,13.30
2023-06-15T04:29:51.274Z,13.40
2023-06-15T04:31:59.793Z,13.60
2023-06-15T04:34:08.203Z,13.70
2023-06-15T04:38:26.652Z,14.00
2023-06-15T04:40:35.092Z,14.10
2023-06-15T04:42:45.808Z,14.30
2023-06-15T04:44:54.073Z,14.40
2023-06-15T04:47:05.687Z,14.50
2023-06-15T04:49:13.997Z,14.70
2023-06-15T04:51:22.238Z,14.90
2023-06-15T04:53:30.700Z,15.00
2023-06-15T04:55:38.977Z,15.10
2023-06-15T04:57:48.660Z,15.20
2023-06-15T04:59:57.023Z,15.50
2023-06-15T05:02:05.737Z,15.60
2023-06-15T05:04:13.945Z,15.80
2023-06-15T05:06:22.173Z,15.90
2023-06-15T05:08:30.460Z,16.00
2023-06-15T05:10:46.018Z,16.30
2023-06-15T05:12:56.028Z,16.50
2023-06-15T05:15:04.845Z,16.60
2023-06-15T05:17:13.878Z,16.70
2023-06-15T05:19:22.229Z,16.80
2023-06-15T05:21:30.584Z,16.90
2023-06-15T05:23:38.823Z,17.10
2023-06-15T05:25:47.168Z,17.10
2023-06-15T05:27:57.263Z,17.10
2023-06-15T05:30:08.969Z,17.10
2023-06-15T05:32:17.467Z,17.30
2023-06-15T05:34:25.839Z,17.40
2023-06-15T05:36:55.292Z,17.60
2023-06-15T05:39:04.509Z,17.60
2023-06-15T05:41:12.944Z,17.60
2023-06-15T05:43:22.579Z,17.70
2023-06-15T05:45:31.325Z,17.70
2023-06-15T05:47:39.601Z,17.80
2023-06-15T05:49:48.137Z,17.90
2023-06-15T05:51:56.544Z,17.90
2023-06-15T05:54:05.085Z,18.00
2023-06-15T05:56:13.545Z,18.10
2023-06-15T05:58:23.293Z,18.20
2023-06-15T06:00:33.018Z,18.30
2023-06-15T06:02:42.522Z,18.40
2023-06-15T06:04:51.000Z,18.30
2023-06-15T06:06:59.338Z,18.50
2023-06-15T06:09:07.677Z,18.60
2023-06-15T06:11:17.472Z,18.70
2023-06-15T06:13:27.109Z,18.60
2023-06-15T06:15:35.445Z,18.40
2023-06-15T06:18:03.092Z,18.30
2023-06-15T06:20:14.191Z,18.30
2023-06-15T06:22:22.728Z,18.30
2023-06-15T06:24:31.061Z,18.50
2023-06-15T06:26:39.384Z,18.70
2023-06-15T06:28:49.779Z,18.80
2023-06-15T06:30:58.089Z,19.00
2023-06-15T06:33:06.586Z,19.20
2023-06-15T06:35:15.036Z,19.40
2023-06-15T06:37:25.800Z,19.50
2023-06-15T06:39:34.174Z,19.60
2023-06-15T06:41:42.392Z,19.70
2023-06-15T06:43:52.460Z,19.90
2023-06-15T06:46:01.025Z,19.90
2023-06-15T06:48:09.428Z,19.90
2023-06-15T06:50:18.134Z,19.90
2023-06-15T06:52:26.473Z,19.90
2023-06-15T06:54:35.331Z,20.20
2023-06-15T06:56:43.556Z,20.20
2023-06-15T06:58:53.183Z,20.20
2023-06-15T07:01:01.404Z,20.30
2023-06-15T07:03:09.998Z,20.40
2023-06-15T07:05:18.676Z,20.40
2023-06-15T07:07:27.203Z,20.40
2023-06-15T07:09:35.744Z,20.40
2023-06-15T07:11:44.012Z,20.20
2023-06-15T07:13:53.650Z,20.10
2023-06-15T07:16:01.847Z,20.00
2023-06-15T07:18:10.295Z,19.90
2023-06-15T07:20:18.590Z,20.10
2023-06-15T07:22:26.859Z,20.30
2023-06-15T07:24:36.832Z,20.40
2023-06-15T07:26:45.209Z,20.60
2023-06-15T07:28:55.114Z,20.80
2023-06-15T07:31:03.777Z,21.00
2023-06-15T07:33:12.200Z,21.00
2023-06-15T07:35:20.896Z,21.10
2023-06-15T07:37:29.253Z,21.20
2023-06-15T07:39:38.256Z,21.30
2023-06-15T07:41:46.584Z,21.20
2023-06-15T07:43:56.239Z,21.30
2023-06-15T07:46:04.500Z,21.40
2023-06-15T07:48:12.800Z,21.60
2023-06-15T07:50:21.227Z,21.80
2023-06-15T07:52:29.551Z,21.80
2023-06-15T07:54:37.757Z,21.90
2023-06-15T07:56:46.657Z,22.00
2023-06-15T07:58:56.561Z,22.10
2023-06-15T08:01:04.886Z,22.10
2023-06-15T08:03:13.226Z,22.20
2023-06-15T08:05:21.545Z,22.10
2023-06-15T08:07:29.930Z,22.20
2023-06-15T08:09:38.338Z,22.30
2023-06-15T08:11:46.969Z,22.30
2023-06-15T08:13:57.144Z,22.50
2023-06-15T08:16:07.037Z,22.60
2023-06-15T08:18:15.385Z,22.60
2023-06-15T08:20:23.712Z,22.80
2023-06-15T08:22:32.222Z,22.90
2023-06-15T08:24:40.706Z,22.80
2023-06-15T08:26:49.811Z,23.00
2023-06-15T08:29:13.511Z,23.00
2023-06-15T08:31:27.882Z,23.10
2023-06-15T08:33:37.203Z,23.20
2023-06-15T08:35:45.489Z,23.30
2023-06-15T08:37:53.770Z,23.10
2023-06-15T08:40:07.388Z,23.20
2023-06-15T08:42:18.322Z,23.50
2023-06-15T08:44:28.691Z,23.50
2023-06-15T08:46:38.218Z,23.60
2023-06-15T08:48:49.571Z,23.80
2023-06-15T08:50:57.929Z,24.10
2023-06-15T08:53:07.660Z,24.10
2023-06-15T08:55:17.378Z,24.20
2023-06-15T08:57:25.847Z,24.10
2023-06-15T08:59:35.810Z,24.00
2023-06-15T09:01:45.004Z,24.20
2023-06-15T09:03:54.965Z,24.40
2023-06-15T09:06:03.442Z,24.50
2023-06-15T09:08:11.942Z,24.50
2023-06-15T09:10:21.499Z,24.60
2023-06-15T09:12:30.046Z,24.50
2023-06-15T09:14:43.013Z,24.70
2023-06-15T09:16:52.274Z,25.00
2023-06-15T09:19:00.706Z,25.00
2023-06-15T09:21:13.708Z,25.00
2023-06-15T09:23:22.013Z,25.00
2023-06-15T09:25:33.056Z,25.00
2023-06-15T09:27:41.403Z,24.90
2023-06-15T09:30:08.402Z,25.10
2023-06-15T09:32:16.776Z,25.40
2023-06-15T09:34:25.009Z,25.30
2023-06-15T09:36:43.242Z,25.30
2023-06-15T09:38:56.185Z,25.10
2023-06-15T09:41:05.633Z,25.20
2023-06-15T09:43:14.634Z,25.30
2023-06-15T09:45:24.465Z,25.70
2023-06-15T09:47:33.879Z,25.20
2023-06-15T09:49:47.070Z,25.10
2023-06-15T09:51:56.467Z,25.20
2023-06-15T09:54:06.586Z,25.30
2023-06-15T09:58:29.666Z,24.80
2023-06-15T10:00:39.943Z,25.10
2023-06-15T10:02:49.102Z,25.60
2023-06-15T10:04:58.784Z,25.60
2023-06-15T10:07:07.794Z,25.80
2023-06-15T10:09:20.937Z,25.70
2023-06-15T10:11:30.306Z,25.90
2023-06-15T10:13:44.717Z,26.20
2023-06-15T10:15:57.447Z,25.90
2023-06-15T10:18:07.103Z,26.00
2023-06-15T10:20:19.769Z,25.80
2023-06-15T10:22:28.904Z,25.80
2023-06-15T10:24:38.462Z,26.10
2023-06-15T10:26:47.020Z,26.20
2023-06-15T10:29:02.117Z,26.30
2023-06-15T10:31:19.008Z,26.30
2023-06-15T10:33:33.592Z,26.10
2023-06-15T10:35:50.512Z,26.20
2023-06-15T10:38:09.212Z,26.10
2023-06-15T10:40:26.995Z,26.10
2023-06-15T10:42:44.748Z,25.50
2023-06-15T10:44:52.947Z,25.80
2023-06-15T10:47:10.201Z,26.10
2023-06-15T10:49:18.582Z,26.10
2023-06-15T10:51:27.503Z,26.10
2023-06-15T10:53:43.528Z,26.30
2023-06-15T10:55:55.566Z,26.10
2023-06-15T10:58:17.023Z,26.00
2023-06-15T11:00:26.943Z,25.90
2023-06-15T11:03:00.256Z,26.10
2023-06-15T11:05:10.151Z,25.90
2023-06-15T11:07:29.305Z,25.90
2023-06-15T11:09:38.519Z,25.70
2023-06-15T11:11:46.929Z,25.60
2023-06-15T11:14:01.360Z,25.70
2023-06-15T11:16:10.961Z,26.10
2023-06-15T11:18:21.343Z,26.10
2023-06-15T11:21:00.676Z,25.90
2023-06-15T11:23:11.445Z,25.70
2023-06-15T11:25:21.533Z,25.70
2023-06-15T11:27:30.908Z,25.60
2023-06-15T11:29:42.170Z,25.20
2023-06-15T11:31:51.530Z,25.50
2023-06-15T11:34:01.400Z,25.60
2023-06-15T11:36:10.758Z,25.40
2023-06-15T11:38:19.103Z,25.40
2023-06-15T11:40:27.471Z,25.60
2023-06-15T11:42:35.752Z,25.20
2023-06-15T11:44:44.122Z,25.00
2023-06-15T11:46:56.498Z,25.50
2023-06-15T11:49:08.004Z,25.50
2023-06-15T11:51:17.654Z,25.70
2023-06-15T11:53:26.214Z,25.60
2023-06-15T11:55:34.610Z,25.60
2023-06-15T11:57:44.692Z,25.80
2023-06-15T11:59:53.278Z,25.80
2023-06-15T12:02:01.686Z,25.80
2023-06-15T12:04:14.198Z,25.80
2023-06-15T12:06:23.457Z,25.70
2023-06-15T12:08:33.328Z,25.30
2023-06-15T12:10:43.807Z,25.40
2023-06-15T12:12:52.594Z,25.20
2023-06-15T12:15:02.206Z,25.50
2023-06-15T12:17:10.599Z,25.50
2023-06-15T12:19:21.504Z,25.00
2023-06-15T12:21:33.831Z,25.20
2023-06-15T12:23:42.170Z,25.30
2023-06-15T12:25:53.782Z,25.20
2023-06-15T12:28:02.243Z,25.20
2023-06-15T12:30:12.862Z,25.40
2023-06-15T12:32:25.109Z,25.50
2023-06-15T12:34:35.001Z,25.60
2023-06-15T12:36:43.489Z,25.30
2023-06-15T12:38:52.178Z,25.20
2023-06-15T12:41:01.838Z,25.40
2023-06-15T12:43:10.426Z,25.40
2023-06-15T12:45:18.703Z,25.70
2023-06-15T12:47:26.982Z,25.60
2023-06-15T12:49:36.807Z,25.30
2023-06-15T12:51:47.787Z,25.70
2023-06-15T12:53:57.562Z,25.90
2023-06-15T12:56:06.977Z,25.90
2023-06-15T12:58:15.778Z,25.90
2023-06-15T13:00:26.744Z,26.10
2023-06-15T13:02:35.690Z,25.70
2023-06-15T13:04:46.221Z,25.70
2023-06-15T13:06:54.960Z,25.90
2023-06-15T13:09:04.001Z,26.10
2023-06-15T13:11:12.545Z,26.10
2023-06-15T13:13:20.872Z,26.10
2023-06-15T13:15:29.806Z,25.80
2023-06-15T13:17:38.765Z,25.90
2023-06-15T13:19:48.738Z,25.90
2023-06-15T13:21:57.090Z,26.10
2023-06-15T13:24:06.464Z,26.20
2023-06-15T13:26:14.909Z,26.20
2023-06-15T13:28:23.341Z,26.00
2023-06-15T13:30:31.688Z,26.20
2023-06-15T13:32:43.969Z,26.30
2023-06-15T13:34:54.020Z,25.90
2023-06-15T13:37:02.504Z,25.60
2023-06-15T13:39:10.945Z,25.60
2023-06-15T13:41:19.281Z,25.70
2023-06-15T13:43:27.842Z,26.00
2023-06-15T13:45:36.052Z,26.30
2023-06-15T13:47:45.766Z,26.60
2023-06-15T13:49:56.815Z,26.40
2023-06-15T13:52:05.438Z,26.30
2023-06-15T13:54:14.019Z,26.40
2023-06-15T13:56:22.472Z,26.60
2023-06-15T13:58:30.933Z,26.90
2023-06-15T14:00:39.626Z,27.10
2023-06-15T14:02:48.265Z,27.00
2023-06-15T14:04:58.664Z,26.90
2023-06-15T14:07:07.654Z,27.00
2023-06-15T14:09:16.135Z,26.40
2023-06-15T14:11:26.724Z,26.10
2023-06-15T14:13:38.013Z,26.20
2023-06-15T14:15:47.172Z,26.10
2023-06-15T14:17:55.621Z,26.40
2023-06-15T14:20:06.234Z,25.90
2023-06-15T14:22:14.629Z,26.10
2023-06-15T14:24:23.175Z,26.40
2023-06-15T14:26:31.416Z,27.00
2023-06-15T14:28:40.404Z,27.00
2023-06-15T14:30:48.793Z,27.30
2023-06-15T14:32:57.544Z,26.90
2023-06-15T14:35:08.241Z,27.80
2023-06-15T14:37:18.921Z,27.90
2023-06-15T14:39:28.676Z,28.30
2023-06-15T14:41:37.249Z,28.40
2023-06-15T14:43:45.731Z,28.20
2023-06-15T14:45:54.090Z,28.30
2023-06-15T14:48:02.432Z,28.40
2023-06-15T14:50:12.780Z,28.20
2023-06-15T14:52:21.431Z,28.50
2023-06-15T14:54:29.988Z,27.40
2023-06-15T14:56:39.864Z,28.00
2023-06-15T14:58:48.190Z,27.80
2023-06-15T15:00:56.462Z,28.70
2023-06-15T15:03:05.014Z,27.90
2023-06-15T15:05:14.828Z,27.60
2023-06-15T15:07:23.022Z,26.90
2023-06-15T15:09:31.221Z,27.10
2023-06-15T15:11:39.487Z,27.10
2023-06-15T15:13:48.012Z,28.20
2023-06-15T15:15:56.304Z,28.30
2023-06-15T15:18:05.229Z,28.60
2023-06-15T15:20:15.182Z,29.00
2023-06-15T15:22:23.526Z,29.00
2023-06-15T15:24:32.655Z,28.00
2023-06-15T15:26:42.733Z,28.10
2023-06-15T15:28:51.412Z,27.50
2023-06-15T15:30:59.834Z,27.20
2023-06-15T15:33:08.138Z,28.10
2023-06-15T15:35:18.024Z,28.50
2023-06-15T15:37:26.317Z,27.60
2023-06-15T15:39:34.697Z,27.60
2023-06-15T15:41:43.998Z,27.70
2023-06-15T15:43:52.515Z,28.60
2023-06-15T15:46:01.748Z,28.90
2023-06-15T15:48:10.620Z,28.50
2023-06-15T15:50:20.999Z,28.60
2023-06-15T15:52:29.528Z,28.60
2023-06-15T15:54:37.781Z,27.80
2023-06-15T15:56:46.032Z,28.00
2023-06-15T15:58:54.373Z,28.60
2023-06-15T16:01:02.796Z,28.60
2023-06-15T16:03:11.248Z,28.40
2023-06-15T16:05:21.116Z,28.60
2023-06-15T16:07:30.560Z,28.30
2023-06-15T16:09:39.078Z,28.20
2023-06-15T16:11:47.449Z,28.90
2023-06-15T16:13:56.359Z,29.10
2023-06-15T16:16:20.914Z,28.60
2023-06-15T16:18:33.370Z,28.50
2023-06-15T16:20:43.248Z,28.70
2023-06-15T16:22:51.603Z,27.80
2023-06-15T16:24:59.974Z,28.40
2023-06-15T16:27:08.675Z,28.80
2023-06-15T16:29:16.917Z,28.70
2023-06-15T16:31:25.286Z,28.90
2023-06-15T16:33:33.564Z,28.30
2023-06-15T16:35:44.292Z,28.70
2023-06-15T16:37:52.811Z,28.10
2023-06-15T16:40:03.707Z,28.30
2023-06-15T16:42:12.204Z,28.30
2023-06-15T16:44:20.617Z,28.10
2023-06-15T16:46:29.229Z,28.30
2023-06-15T16:48:37.657Z,28.40
2023-06-15T16:50:47.950Z,28.40
2023-06-15T16:52:56.481Z,28.00
2023-06-15T16:55:05.228Z,27.80
2023-06-15T16:57:16.128Z,27.90
2023-06-15T16:59:24.447Z,28.00
2023-06-15T17:01:33.491Z,28.40
2023-06-15T17:03:45.799Z,28.60
2023-06-15T17:05:55.637Z,28.00
2023-06-15T17:08:04.154Z,27.90
2023-06-15T17:10:12.653Z,27.80
2023-06-15T17:12:21.725Z,27.80
2023-06-15T17:14:30.021Z,27.60
2023-06-15T17:16:39.237Z,28.10
2023-06-15T17:18:47.548Z,28.60
2023-06-15T17:20:58.179Z,28.60
2023-06-15T17:23:07.629Z,28.20
2023-06-15T17:25:16.104Z,28.10
2023-06-15T17:27:24.362Z,27.80
2023-06-15T17:29:32.573Z,28.20
2023-06-15T17:31:40.988Z,28.20
2023-06-15T17:33:49.379Z,27.90
2023-06-15T17:35:59.107Z,27.80
2023-06-15T17:38:09.411Z,28.50
2023-06-15T17:40:18.240Z,29.10
2023-06-15T17:42:26.923Z,29.70
2023-06-15T17:44:35.529Z,30.00
2023-06-15T17:46:43.889Z,30.20
2023-06-15T17:48:52.313Z,30.30
2023-06-15T17:51:02.262Z,30.30
2023-06-15T17:53:10.897Z,30.90
2023-06-15T17:55:19.278Z,31.00
2023-06-15T17:57:27.727Z,31.00
2023-06-15T17:59:36.178Z,30.50
2023-06-15T18:01:44.714Z,29.70
2023-06-15T18:03:54.673Z,30.00
2023-06-15T18:06:04.509Z,30.20
2023-06-15T18:08:12.954Z,30.00
2023-06-15T18:10:21.973Z,30.10
2023-06-15T18:12:30.461Z,29.70
2023-06-15T18:14:39.128Z,29.70
2023-06-15T18:16:47.569Z,29.40
2023-06-15T18:18:55.885Z,29.10
2023-06-15T18:21:05.646Z,28.90
2023-06-15T18:23:14.292Z,28.50
2023-06-15T18:25:22.714Z,28.10
2023-06-15T18:27:31.599Z,27.80
2023-06-15T18:29:39.834Z,27.40
2023-06-15T18:31:49.708Z,27.10
2023-06-15T18:33:58.162Z,26.80
2023-06-15T18:36:08.043Z,26.50
2023-06-15T18:38:18.060Z,26.00
2023-06-15T18:40:27.306Z,25.80
2023-06-15T18:42:38.022Z,25.70
2023-06-15T18:46:54.914Z,25.10
2023-06-15T18:49:04.285Z,24.50
2023-06-15T18:51:13.986Z,24.10
2023-06-15T18:53:22.238Z,23.60
2023-06-15T18:55:30.676Z,23.40
2023-06-15T18:57:38.949Z,23.20
2023-06-15T18:59:47.553Z,23.00
2023-06-15T19:01:57.869Z,22.90
2023-06-15T19:04:06.501Z,22.80
2023-06-15T19:06:17.214Z,22.60
2023-06-15T19:08:25.568Z,22.60
2023-06-15T19:10:33.980Z,22.50
2023-06-15T19:12:42.338Z,22.40
2023-06-15T19:14:50.623Z,22.30
2023-06-15T19:16:58.937Z,22.20
2023-06-15T19:19:07.395Z,22.10
2023-06-15T19:21:17.112Z,22.00
2023-06-15T19:23:25.672Z,22.00
2023-06-15T19:25:33.921Z,21.80
2023-06-15T19:27:42.277Z,21.50
2023-06-15T19:29:50.607Z,21.40
2023-06-15T19:31:59.015Z,21.40
2023-06-15T19:34:07.409Z,21.40
2023-06-15T19:36:17.063Z,21.30
2023-06-15T19:38:25.507Z,21.20
2023-06-15T19:40:33.732Z,21.10
2023-06-15T19:42:43.347Z,21.00
2023-06-15T19:44:51.677Z,20.80
2023-06-15T19:46:59.947Z,20.70
2023-06-15T19:49:08.270Z,20.60
2023-06-15T19:51:18.024Z,20.50
2023-06-15T19:53:28.147Z,20.50
2023-06-15T19:55:36.571Z,20.50
2023-06-15T19:57:44.867Z,20.40
2023-06-15T19:59:53.188Z,20.20
2023-06-15T20:02:01.690Z,20.20
2023-06-15T20:04:10.220Z,20.10
2023-06-15T20:06:19.947Z,19.80
2023-06-15T20:08:31.501Z,19.70
2023-06-15T20:10:40.387Z,19.70
2023-06-15T20:12:49.861Z,19.60
2023-06-15T20:14:58.755Z,19.50
2023-06-15T20:17:07.244Z,19.40
2023-06-15T20:19:16.801Z,19.40
2023-06-15T20:21:28.934Z,19.30
2023-06-15T20:23:39.029Z,19.20
2023-06-15T20:25:47.444Z,19.10
2023-06-15T20:27:55.761Z,19.00
2023-06-15T20:30:04.772Z,19.00
2023-06-15T20:32:13.093Z,19.10
2023-06-15T20:34:21.545Z,19.10
2023-06-15T20:36:31.933Z,19.10
2023-06-15T20:38:40.944Z,19.00
2023-06-15T20:40:49.430Z,19.00
2023-06-15T20:43:00.207Z,18.90
2023-06-15T20:45:09.834Z,18.80
2023-06-15T20:47:18.233Z,18.60
2023-06-15T20:49:26.703Z,18.60
2023-06-15T20:51:37.290Z,18.60
2023-06-15T20:53:45.522Z,18.40
2023-06-15T20:55:53.897Z,18.30
2023-06-15T20:58:03.627Z,18.20
2023-06-15T21:00:12.988Z,18.10
2023-06-15T21:02:21.658Z,18.00
2023-06-15T21:04:30.381Z,17.90
2023-06-15T21:06:40.029Z,17.70
2023-06-15T21:08:51.353Z,17.60
2023-06-15T21:11:00.044Z,17.50
2023-06-15T21:13:08.464Z,17.30
2023-06-15T21:15:17.035Z,17.30
2023-06-15T21:17:25.442Z,17.30
2023-06-15T21:19:33.763Z,17.30
2023-06-15T21:21:43.500Z,17.30
2023-06-15T21:23:51.831Z,17.40
2023-06-15T21:26:00.338Z,17.30
2023-06-15T21:28:10.753Z,17.10
2023-06-15T21:30:19.541Z,16.90
2023-06-15T21:32:28.133Z,16.80
2023-06-15T21:34:36.582Z,16.70
2023-06-15T21:36:46.404Z,16.80
2023-06-15T21:38:55.337Z,16.80
2023-06-15T21:41:04.237Z,16.80
2023-06-15T21:43:12.573Z,16.80
2023-06-15T21:45:21.068Z,16.80
2023-06-15T21:47:31.100Z,16.80
2023-06-15T21:49:39.506Z,16.70
2023-06-15T21:51:49.283Z,16.70
2023-06-15T21:53:57.640Z,16.50
2023-06-15T21:56:07.842Z,16.40
2023-06-15T21:58:16.842Z,16.20
2023-06-15T22:00:25.232Z,16.10
2023-06-15T22:02:33.786Z,16.10
2023-06-15T22:04:44.595Z,16.00
2023-06-15T22:06:54.409Z,16.00
2023-06-15T22:09:03.374Z,16.10
2023-06-15T22:11:11.669Z,16.00
2023-06-15T22:13:21.992Z,16.00
2023-06-15T22:15:30.316Z,15.90
2023-06-15T22:17:40.888Z,15.90
2023-06-15T22:19:51.395Z,15.80
2023-06-15T22:22:01.746Z,15.80
2023-06-15T22:26:20.137Z,15.70
2023-06-15T22:28:28.397Z,15.60
2023-06-15T22:30:36.857Z,15.50
2023-06-15T22:32:47.451Z,15.40
2023-06-15T22:34:55.681Z,15.30
2023-06-15T22:37:07.544Z,15.30
2023-06-15T22:39:15.782Z,15.30
2023-06-15T22:41:24.044Z,15.30
2023-06-15T22:43:32.288Z,15.20
2023-06-15T22:45:41.273Z,15.20
2023-06-15T22:47:50.535Z,15.20
2023-06-15T22:50:01.982Z,15.20
2023-06-15T22:52:12.575Z,15.20
2023-06-15T22:54:20.830Z,15.10
2023-06-15T22:56:29.049Z,15.10
2023-06-15T22:58:37.256Z,15.00
2023-06-15T23:00:45.757Z,15.00
2023-06-15T23:02:54.232Z,14.90
2023-06-15T23:05:02.690Z,14.80
2023-06-15T23:07:13.109Z,14.80
2023-06-15T23:09:22.102Z,14.80
2023-06-15T23:11:30.430Z,14.80
2023-06-15T23:13:38.807Z,14.80
2023-06-15T23:15:47.900Z,14.80
2023-06-15T23:17:57.640Z,14.70
2023-06-15T23:20:07.424Z,14.70
2023-06-15T23:22:23.213Z,14.70
2023-06-15T23:24:31.593Z,14.60
2023-06-15T23:26:40.353Z,14.50
2023-06-15T23:28:55.259Z,14.50
2023-06-15T23:31:03.443Z,14.40
2023-06-15T23:33:11.741Z,14.20
2023-06-15T23:35:20.318Z,14.10
2023-06-15T23:37:29.994Z,14.10
2023-06-15T23:39:38.230Z,14.30
2023-06-15T23:41:46.475Z,14.30
2023-06-15T23:43:55.062Z,14.30
2023-06-15T23:46:03.252Z,14.30
2023-06-15T23:48:11.648Z,14.30
2023-06-15T23:50:20.176Z,14.20
2023-06-15T23:52:30.338Z,14.20
2023-06-15T23:54:40.031Z,14.20
2023-06-15T23:56:48.389Z,14.20
2023-06-15T23:58:56.680Z,14.20
